sensor_id;sensor_type;location;lat;lon;timestamp;pressure;altitude;pressure_sealevel;temperature;humidity
7524;BME280;3803;51.666;7.630;2023-04-03T00:00:12;102401.06;;;4.46;55.75
7524;BME280;3803;51.666;7.630;2023-04-03T00:00:33;102387.19;;;4.33;55.33
7524;BME280;3803;51.666;7.630;2023-04-03T00:00:55;102399.56;;;4.37;55.81
7524;BME280;3803;51.666;7.630;2023-04-03T00:01:17;102406.78;;;4.42;55.60
7524;BME280;3803;51.666;7.630;2023-04-03T00:01:37;102402.03;;;4.36;55.71
7524;BME280;3803;51.666;7.630;2023-04-03T00:01:58;102394.66;;;4.30;55.93
7524;BME280;3803;51.666;7.630;2023-04-03T00:02:19;102396.38;;;4.30;55.80
7524;BME280;3803;51.666;7.630;2023-04-03T00:02:39;102399.97;;;4.32;55.52
7524;BME280;3803;51.666;7.630;2023-04-03T00:03:00;102409.88;;;4.37;55.81
7524;BME280;3803;51.666;7.630;2023-04-03T00:03:21;102410.81;;;4.38;55.99
7524;BME280;3803;51.666;7.630;2023-04-03T00:03:42;102405.28;;;4.33;55.95
7524;BME280;3803;51.666;7.630;2023-04-03T00:04:03;102408.66;;;4.32;55.55
7524;BME280;3803;51.666;7.630;2023-04-03T00:04:24;102399.09;;;4.31;55.70
7524;BME280;3803;51.666;7.630;2023-04-03T00:04:45;102387.97;;;4.22;55.84
7524;BME280;3803;51.666;7.630;2023-04-03T00:05:07;102414.03;;;4.35;56.17
7524;BME280;3803;51.666;7.630;2023-04-03T00:05:27;102390.84;;;4.25;55.62
7524;BME280;3803;51.666;7.630;2023-04-03T00:05:48;102391.63;;;4.24;55.96
7524;BME280;3803;51.666;7.630;2023-04-03T00:06:10;102409.66;;;4.34;55.76
7524;BME280;3803;51.666;7.630;2023-04-03T00:06:32;102391.63;;;4.24;55.57
7524;BME280;3803;51.666;7.630;2023-04-03T00:06:52;102399.59;;;4.27;56.03
7524;BME280;3803;51.666;7.630;2023-04-03T00:07:13;102391.06;;;4.28;56.07
7524;BME280;3803;51.666;7.630;2023-04-03T00:07:35;102396.38;;;4.30;55.65
7524;BME280;3803;51.666;7.630;2023-04-03T00:07:55;102397.25;;;4.30;55.80
7524;BME280;3803;51.666;7.630;2023-04-03T00:08:16;102395.44;;;4.29;55.85
7524;BME280;3803;51.666;7.630;2023-04-03T00:08:38;102393.53;;;4.27;55.75
7524;BME280;3803;51.666;7.630;2023-04-03T00:08:59;102390.94;;;4.27;55.75
7524;BME280;3803;51.666;7.630;2023-04-03T00:09:20;102406.06;;;4.32;55.67
7524;BME280;3803;51.666;7.630;2023-04-03T00:09:41;102388.91;;;4.22;55.53
7524;BME280;3803;51.666;7.630;2023-04-03T00:10:01;102400.38;;;4.26;55.82
7524;BME280;3803;51.666;7.630;2023-04-03T00:10:22;102394.31;;;4.26;55.56
7524;BME280;3803;51.666;7.630;2023-04-03T00:10:43;102385.00;;;4.17;55.85
7524;BME280;3803;51.666;7.630;2023-04-03T00:11:40;102414.03;;;4.35;56.08
7524;BME280;3803;51.666;7.630;2023-04-03T00:12:01;102402.41;;;4.30;55.97
7524;BME280;3803;51.666;7.630;2023-04-03T00:12:21;102393.66;;;4.28;55.96
7524;BME280;3803;51.666;7.630;2023-04-03T00:12:42;102388.34;;;4.27;55.85
7524;BME280;3803;51.666;7.630;2023-04-03T00:13:04;102408.34;;;4.40;55.63
7524;BME280;3803;51.666;7.630;2023-04-03T00:13:25;102406.28;;;4.35;55.76
7524;BME280;3803;51.666;7.630;2023-04-03T00:13:46;102397.16;;;4.29;55.56
7524;BME280;3803;51.666;7.630;2023-04-03T00:14:06;102388.47;;;4.28;55.79
7524;BME280;3803;51.666;7.630;2023-04-03T00:14:27;102393.91;;;4.31;55.71
7524;BME280;3803;51.666;7.630;2023-04-03T00:14:47;102396.25;;;4.28;55.54
7524;BME280;3803;51.666;7.630;2023-04-03T00:15:09;102392.09;;;4.30;55.82
7524;BME280;3803;51.666;7.630;2023-04-03T00:15:29;102400.88;;;4.32;55.38
7524;BME280;3803;51.666;7.630;2023-04-03T00:15:51;102408.22;;;4.38;55.42
7524;BME280;3803;51.666;7.630;2023-04-03T00:16:12;102413.53;;;4.40;55.38
7524;BME280;3803;51.666;7.630;2023-04-03T00:16:32;102402.03;;;4.36;55.31
7524;BME280;3803;51.666;7.630;2023-04-03T00:16:53;102397.38;;;4.32;55.06
7524;BME280;3803;51.666;7.630;2023-04-03T00:17:13;102400.88;;;4.32;55.72
7524;BME280;3803;51.666;7.630;2023-04-03T00:17:34;102395.81;;;4.34;55.68
7524;BME280;3803;51.666;7.630;2023-04-03T00:17:55;102403.84;;;4.37;55.45
7524;BME280;3803;51.666;7.630;2023-04-03T00:18:16;102402.41;;;4.30;55.56
7524;BME280;3803;51.666;7.630;2023-04-03T00:18:37;102402.91;;;4.36;55.25
7524;BME280;3803;51.666;7.630;2023-04-03T00:18:58;102394.16;;;4.34;55.69
7524;BME280;3803;51.666;7.630;2023-04-03T00:19:19;102399.09;;;4.31;55.34
7524;BME280;3803;51.666;7.630;2023-04-03T00:19:39;102401.00;;;4.34;55.47
7524;BME280;3803;51.666;7.630;2023-04-03T00:20:01;102388.97;;;4.34;55.57
7524;BME280;3803;51.666;7.630;2023-04-03T00:20:21;102388.47;;;4.28;55.32
7524;BME280;3803;51.666;7.630;2023-04-03T00:20:42;102398.16;;;4.31;55.48
7524;BME280;3803;51.666;7.630;2023-04-03T00:21:04;102403.56;;;4.34;55.44
7524;BME280;3803;51.666;7.630;2023-04-03T00:21:24;102397.25;;;4.30;55.36
7524;BME280;3803;51.666;7.630;2023-04-03T00:21:45;102382.28;;;4.26;55.45
7524;BME280;3803;51.666;7.630;2023-04-03T00:22:06;102398.03;;;4.29;55.51
7524;BME280;3803;51.666;7.630;2023-04-03T00:22:26;102383.97;;;4.26;55.58
7524;BME280;3803;51.666;7.630;2023-04-03T00:22:48;102382.16;;;4.24;55.72
7524;BME280;3803;51.666;7.630;2023-04-03T00:23:09;102411.22;;;4.32;55.64
7524;BME280;3803;51.666;7.630;2023-04-03T00:23:30;102380.09;;;4.20;55.58
7524;BME280;3803;51.666;7.630;2023-04-03T00:23:51;102397.81;;;4.26;55.93
7524;BME280;3803;51.666;7.630;2023-04-03T00:24:12;102393.66;;;4.28;55.65
7524;BME280;3803;51.666;7.630;2023-04-03T00:24:32;102390.06;;;4.26;55.57
7524;BME280;3803;51.666;7.630;2023-04-03T00:24:53;102396.38;;;4.30;55.79
7524;BME280;3803;51.666;7.630;2023-04-03T00:25:14;102402.41;;;4.30;55.43
7524;BME280;3803;51.666;7.630;2023-04-03T00:25:34;102397.66;;;4.24;55.47
7524;BME280;3803;51.666;7.630;2023-04-03T00:25:55;102398.97;;;4.30;55.50
7524;BME280;3803;51.666;7.630;2023-04-03T00:26:16;102398.81;;;4.28;55.80
7524;BME280;3803;51.666;7.630;2023-04-03T00:26:37;102393.66;;;4.28;55.36
7524;BME280;3803;51.666;7.630;2023-04-03T00:26:57;102395.44;;;4.29;55.55
7524;BME280;3803;51.666;7.630;2023-04-03T00:27:18;102388.91;;;4.22;55.52
7524;BME280;3803;51.666;7.630;2023-04-03T00:27:39;102396.50;;;4.31;55.41
7524;BME280;3803;51.666;7.630;2023-04-03T00:28:00;102407.31;;;4.37;55.50
7524;BME280;3803;51.666;7.630;2023-04-03T00:28:21;102383.56;;;4.31;55.74
7524;BME280;3803;51.666;7.630;2023-04-03T00:28:42;102388.19;;;4.35;55.37
7524;BME280;3803;51.666;7.630;2023-04-03T00:29:03;102417.34;;;4.45;55.50
7524;BME280;3803;51.666;7.630;2023-04-03T00:29:23;102408.34;;;4.40;55.14
7524;BME280;3803;51.666;7.630;2023-04-03T00:29:44;102398.41;;;4.34;55.19
7524;BME280;3803;51.666;7.630;2023-04-03T00:30:06;102398.91;;;4.40;55.32
7524;BME280;3803;51.666;7.630;2023-04-03T00:30:28;102385.47;;;4.34;55.17
7524;BME280;3803;51.666;7.630;2023-04-03T00:30:49;102383.81;;;4.34;54.79
7524;BME280;3803;51.666;7.630;2023-04-03T00:31:09;102387.19;;;4.33;55.06
7524;BME280;3803;51.666;7.630;2023-04-03T00:31:30;102390.66;;;4.34;55.17
7524;BME280;3803;51.666;7.630;2023-04-03T00:31:51;102400.47;;;4.38;55.38
7524;BME280;3803;51.666;7.630;2023-04-03T00:32:11;102404.84;;;4.39;54.91
7524;BME280;3803;51.666;7.630;2023-04-03T00:32:32;102385.38;;;4.32;55.22
7524;BME280;3803;51.666;7.630;2023-04-03T00:32:53;102411.16;;;4.43;54.90
7524;BME280;3803;51.666;7.630;2023-04-03T00:33:13;102390.28;;;4.29;54.99
7524;BME280;3803;51.666;7.630;2023-04-03T00:33:34;102395.72;;;4.32;55.03
7524;BME280;3803;51.666;7.630;2023-04-03T00:33:55;102397.53;;;4.33;55.16
7524;BME280;3803;51.666;7.630;2023-04-03T00:34:17;102401.13;;;4.35;54.83
7524;BME280;3803;51.666;7.630;2023-04-03T00:34:37;102400.25;;;4.35;55.11
7524;BME280;3803;51.666;7.630;2023-04-03T00:34:58;102392.09;;;4.30;55.39
7524;BME280;3803;51.666;7.630;2023-04-03T00:35:20;102414.28;;;4.38;55.19
7524;BME280;3803;51.666;7.630;2023-04-03T00:35:41;102409.00;;;4.37;54.95
7524;BME280;3803;51.666;7.630;2023-04-03T00:36:06;102395.44;;;4.29;54.89
7524;BME280;3803;51.666;7.630;2023-04-03T00:36:27;102392.22;;;4.32;54.95
7524;BME280;3803;51.666;7.630;2023-04-03T00:36:48;102395.72;;;4.32;54.92
7524;BME280;3803;51.666;7.630;2023-04-03T00:37:08;102389.63;;;4.32;54.78
7524;BME280;3803;51.666;7.630;2023-04-03T00:37:29;102403.94;;;4.38;54.69
7524;BME280;3803;51.666;7.630;2023-04-03T00:37:52;102405.63;;;4.38;55.09
7524;BME280;3803;51.666;7.630;2023-04-03T00:38:13;102392.34;;;4.33;55.01
7524;BME280;3803;51.666;7.630;2023-04-03T00:38:35;102399.31;;;4.34;54.68
7524;BME280;3803;51.666;7.630;2023-04-03T00:38:55;102395.22;;;4.26;54.84
7524;BME280;3803;51.666;7.630;2023-04-03T00:39:16;102399.09;;;4.31;55.10
7524;BME280;3803;51.666;7.630;2023-04-03T00:39:36;102403.69;;;4.35;55.00
7524;BME280;3803;51.666;7.630;2023-04-03T00:39:57;102393.66;;;4.28;54.97
7524;BME280;3803;51.666;7.630;2023-04-03T00:40:18;102414.53;;;4.42;55.04
7524;BME280;3803;51.666;7.630;2023-04-03T00:40:43;102389.13;;;4.26;55.05
7524;BME280;3803;51.666;7.630;2023-04-03T00:41:04;102413.91;;;4.34;55.08
7524;BME280;3803;51.666;7.630;2023-04-03T00:41:25;102397.81;;;4.26;55.30
7524;BME280;3803;51.666;7.630;2023-04-03T00:41:45;102398.81;;;4.28;55.26
7524;BME280;3803;51.666;7.630;2023-04-03T00:42:06;102407.06;;;4.34;54.82
7524;BME280;3803;51.666;7.630;2023-04-03T00:42:27;102395.00;;;4.23;54.71
7524;BME280;3803;51.666;7.630;2023-04-03T00:42:51;102415.84;;;4.36;54.73
7524;BME280;3803;51.666;7.630;2023-04-03T00:43:18;102405.28;;;4.33;54.91
7524;BME280;3803;51.666;7.630;2023-04-03T00:43:39;102401.66;;;4.31;54.86
7524;BME280;3803;51.666;7.630;2023-04-03T00:44:00;102404.00;;;4.28;54.81
7524;BME280;3803;51.666;7.630;2023-04-03T00:45:26;102420.22;;;4.37;55.07
7524;BME280;3803;51.666;7.630;2023-04-03T00:45:51;102394.31;;;4.26;54.84
7524;BME280;3803;51.666;7.630;2023-04-03T00:46:12;102402.97;;;4.26;55.27
7524;BME280;3803;51.666;7.630;2023-04-03T00:46:32;102402.75;;;4.23;54.63
7524;BME280;3803;51.666;7.630;2023-04-03T00:46:53;102399.38;;;4.24;54.81
7524;BME280;3803;51.666;7.630;2023-04-03T00:47:16;102409.94;;;4.27;54.73
7524;BME280;3803;51.666;7.630;2023-04-03T00:47:38;102406.59;;;4.18;55.13
7524;BME280;3803;51.666;7.630;2023-04-03T00:48:01;102401.66;;;4.21;55.18
7524;BME280;3803;51.666;7.630;2023-04-03T00:48:30;102404.53;;;4.24;55.12
7524;BME280;3803;51.666;7.630;2023-04-03T00:48:51;102398.06;;;4.19;55.02
7524;BME280;3803;51.666;7.630;2023-04-03T00:49:12;102395.88;;;4.23;54.84
7524;BME280;3803;51.666;7.630;2023-04-03T00:49:33;102411.09;;;4.31;55.09
7524;BME280;3803;51.666;7.630;2023-04-03T00:49:54;102407.59;;;4.30;54.61
7524;BME280;3803;51.666;7.630;2023-04-03T00:50:14;102407.34;;;4.27;54.59
7524;BME280;3803;51.666;7.630;2023-04-03T00:50:39;102405.69;;;4.28;54.80
7524;BME280;3803;51.666;7.630;2023-04-03T00:51:01;102401.66;;;4.21;54.86
7524;BME280;3803;51.666;7.630;2023-04-03T00:51:24;102413.44;;;4.28;54.80
7524;BME280;3803;51.666;7.630;2023-04-03T00:51:45;102411.88;;;4.30;54.86
7524;BME280;3803;51.666;7.630;2023-04-03T00:52:10;102416.25;;;4.31;54.91
7524;BME280;3803;51.666;7.630;2023-04-03T00:52:33;102409.72;;;4.24;54.88
7524;BME280;3803;51.666;7.630;2023-04-03T00:52:54;102397.13;;;4.18;54.48
7524;BME280;3803;51.666;7.630;2023-04-03T00:53:23;102406.06;;;4.22;54.78
7524;BME280;3803;51.666;7.630;2023-04-03T00:53:51;102421.94;;;4.27;54.60
7524;BME280;3803;51.666;7.630;2023-04-03T00:54:13;102401.41;;;4.18;54.78
7524;BME280;3803;51.666;7.630;2023-04-03T00:54:36;102403.00;;;4.16;54.40
7524;BME280;3803;51.666;7.630;2023-04-03T00:55:03;102411.75;;;4.18;55.02
7524;BME280;3803;51.666;7.630;2023-04-03T00:55:24;102405.31;;;4.13;55.04
7524;BME280;3803;51.666;7.630;2023-04-03T00:55:47;102413.56;;;4.19;54.82
7524;BME280;3803;51.666;7.630;2023-04-03T00:56:10;102404.53;;;4.14;54.76
7524;BME280;3803;51.666;7.630;2023-04-03T00:56:32;102412.28;;;4.24;54.90
7524;BME280;3803;51.666;7.630;2023-04-03T00:56:55;102409.41;;;4.21;54.78
7524;BME280;3803;51.666;7.630;2023-04-03T00:57:17;102405.81;;;4.19;54.82
7524;BME280;3803;51.666;7.630;2023-04-03T00:57:38;102398.72;;;4.16;54.75
7524;BME280;3803;51.666;7.630;2023-04-03T00:57:59;102412.28;;;4.24;54.86
7524;BME280;3803;51.666;7.630;2023-04-03T00:58:25;102407.75;;;4.21;54.68
7524;BME280;3803;51.666;7.630;2023-04-03T00:58:51;102392.66;;;4.16;54.79
7524;BME280;3803;51.666;7.630;2023-04-03T00:59:19;102422.09;;;4.28;54.44
7524;BME280;3803;51.666;7.630;2023-04-03T00:59:46;102408.41;;;4.19;54.73
7524;BME280;3803;51.666;7.630;2023-04-03T01:00:12;102400.41;;;4.16;54.73
7524;BME280;3803;51.666;7.630;2023-04-03T01:00:37;102426.88;;;4.23;54.38
7524;BME280;3803;51.666;7.630;2023-04-03T01:01:03;102407.88;;;4.13;54.36
7524;BME280;3803;51.666;7.630;2023-04-03T01:01:28;102406.09;;;4.11;54.60
7524;BME280;3803;51.666;7.630;2023-04-03T01:01:48;102422.09;;;4.18;54.27
7524;BME280;3803;51.666;7.630;2023-04-03T01:02:10;102420.53;;;4.20;54.60
7524;BME280;3803;51.666;7.630;2023-04-03T01:02:31;102417.59;;;4.15;54.78
7524;BME280;3803;51.666;7.630;2023-04-03T01:02:52;102412.56;;;4.06;54.84
7524;BME280;3803;51.666;7.630;2023-04-03T01:03:13;102409.22;;;4.07;54.63
7524;BME280;3803;51.666;7.630;2023-04-03T01:03:34;102404.81;;;4.06;55.03
7524;BME280;3803;51.666;7.630;2023-04-03T01:04:01;102425.34;;;4.15;54.90
7524;BME280;3803;51.666;7.630;2023-04-03T01:04:32;102411.66;;;4.06;54.44
7524;BME280;3803;51.666;7.630;2023-04-03T01:04:52;102413.47;;;4.07;54.68
7524;BME280;3803;51.666;7.630;2023-04-03T01:05:16;102417.72;;;4.06;54.63
7524;BME280;3803;51.666;7.630;2023-04-03T01:05:37;102421.34;;;4.08;54.89
7524;BME280;3803;51.666;7.630;2023-04-03T01:05:58;102399.69;;;3.96;54.26
7524;BME280;3803;51.666;7.630;2023-04-03T01:06:23;102407.81;;;4.01;54.70
7524;BME280;3803;51.666;7.630;2023-04-03T01:06:45;102412.09;;;4.00;54.87
7524;BME280;3803;51.666;7.630;2023-04-03T01:07:08;102413.09;;;4.02;54.71
7524;BME280;3803;51.666;7.630;2023-04-03T01:07:30;102419.28;;;4.04;54.95
7524;BME280;3803;51.666;7.630;2023-04-03T01:07:52;102412.09;;;4.00;54.86
7524;BME280;3803;51.666;7.630;2023-04-03T01:08:13;102409.88;;;3.94;54.82
7524;BME280;3803;51.666;7.630;2023-04-03T01:08:34;102424.44;;;4.04;54.74
7524;BME280;3803;51.666;7.630;2023-04-03T01:08:55;102408.34;;;3.96;54.87
7524;BME280;3803;51.666;7.630;2023-04-03T01:09:16;102424.44;;;4.04;55.05
7524;BME280;3803;51.666;7.630;2023-04-03T01:09:37;102401.25;;;3.94;54.69
7524;BME280;3803;51.666;7.630;2023-04-03T01:10:01;102416.56;;;4.03;54.75
7524;BME280;3803;51.666;7.630;2023-04-03T01:10:23;102409.78;;;3.93;55.10
7524;BME280;3803;51.666;7.630;2023-04-03T01:10:45;102421.50;;;4.00;54.95
7524;BME280;3803;51.666;7.630;2023-04-03T01:11:07;102413.38;;;3.95;55.19
7524;BME280;3803;51.666;7.630;2023-04-03T01:11:28;102419.06;;;4.01;54.83
7524;BME280;3803;51.666;7.630;2023-04-03T01:11:48;102422.66;;;4.03;55.09
7524;BME280;3803;51.666;7.630;2023-04-03T01:12:22;102417.25;;;4.00;54.75
7524;BME280;3803;51.666;7.630;2023-04-03T01:12:45;102433.00;;;4.03;54.98
7524;BME280;3803;51.666;7.630;2023-04-03T01:13:27;102417.13;;;3.99;54.65
7524;BME280;3803;51.666;7.630;2023-04-03T01:13:49;102412.88;;;3.99;54.61
7524;BME280;3803;51.666;7.630;2023-04-03T01:14:09;102417.63;;;3.94;54.75
7524;BME280;3803;51.666;7.630;2023-04-03T01:14:30;102418.31;;;3.92;54.99
7524;BME280;3803;51.666;7.630;2023-04-03T01:14:56;102425.00;;;4.00;54.97
7524;BME280;3803;51.666;7.630;2023-04-03T01:15:21;102412.88;;;3.89;54.96
7524;BME280;3803;51.666;7.630;2023-04-03T01:15:43;102416.75;;;3.94;54.88
7524;BME280;3803;51.666;7.630;2023-04-03T01:16:04;102408.63;;;3.89;54.97
7524;BME280;3803;51.666;7.630;2023-04-03T01:16:25;102407.97;;;3.92;55.01
7524;BME280;3803;51.666;7.630;2023-04-03T01:16:53;102416.88;;;3.95;54.85
7524;BME280;3803;51.666;7.630;2023-04-03T01:17:38;102403.19;;;3.86;55.06
7524;BME280;3803;51.666;7.630;2023-04-03T01:17:59;102406.69;;;3.87;55.04
7524;BME280;3803;51.666;7.630;2023-04-03T01:18:22;102415.72;;;3.92;55.11
7524;BME280;3803;51.666;7.630;2023-04-03T01:18:44;102412.47;;;3.94;54.85
7524;BME280;3803;51.666;7.630;2023-04-03T01:19:08;102407.59;;;3.87;55.23
7524;BME280;3803;51.666;7.630;2023-04-03T01:19:36;102411.31;;;3.91;54.76
7524;BME280;3803;51.666;7.630;2023-04-03T01:20:48;102431.59;;;3.96;54.79
7524;BME280;3803;51.666;7.630;2023-04-03T01:21:50;102432.25;;;3.94;55.09
7524;BME280;3803;51.666;7.630;2023-04-03T01:22:19;102423.09;;;3.87;54.63
7524;BME280;3803;51.666;7.630;2023-04-03T01:23:46;102429.94;;;3.87;55.00
7524;BME280;3803;51.666;7.630;2023-04-03T01:24:25;102427.84;;;3.82;54.89
7524;BME280;3803;51.666;7.630;2023-04-03T01:24:48;102415.09;;;3.74;55.25
7524;BME280;3803;51.666;7.630;2023-04-03T01:25:08;102421.84;;;3.72;55.39
7524;BME280;3803;51.666;7.630;2023-04-03T01:25:29;102422.22;;;3.76;55.23
7524;BME280;3803;51.666;7.630;2023-04-03T01:25:55;102424.13;;;3.79;55.48
7524;BME280;3803;51.666;7.630;2023-04-03T01:26:27;102407.22;;;3.72;55.32
7524;BME280;3803;51.666;7.630;2023-04-03T01:26:48;102430.44;;;3.82;55.13
7524;BME280;3803;51.666;7.630;2023-04-03T01:27:11;102428.53;;;3.80;55.17
7524;BME280;3803;51.666;7.630;2023-04-03T01:27:32;102429.41;;;3.80;55.36
7524;BME280;3803;51.666;7.630;2023-04-03T01:27:53;102410.44;;;3.69;55.27
7524;BME280;3803;51.666;7.630;2023-04-03T01:28:17;102405.81;;;3.65;55.18
7524;BME280;3803;51.666;7.630;2023-04-03T01:28:37;102427.38;;;3.76;55.35
7524;BME280;3803;51.666;7.630;2023-04-03T01:28:59;102414.72;;;3.69;55.41
7524;BME280;3803;51.666;7.630;2023-04-03T01:29:20;102413.94;;;3.70;54.93
7524;BME280;3803;51.666;7.630;2023-04-03T01:29:41;102418.34;;;3.71;55.18
7524;BME280;3803;51.666;7.630;2023-04-03T01:30:04;102418.84;;;3.67;55.59
7524;BME280;3803;51.666;7.630;2023-04-03T01:30:30;102421.94;;;3.73;55.00
7524;BME280;3803;51.666;7.630;2023-04-03T01:31:58;102417.03;;;3.66;55.43
7524;BME280;3803;51.666;7.630;2023-04-03T01:32:19;102417.81;;;3.65;55.26
7524;BME280;3803;51.666;7.630;2023-04-03T01:32:39;102417.03;;;3.66;54.85
7524;BME280;3803;51.666;7.630;2023-04-03T01:33:00;102416.00;;;3.64;55.03
7524;BME280;3803;51.666;7.630;2023-04-03T01:33:20;102431.09;;;3.69;55.05
7524;BME280;3803;51.666;7.630;2023-04-03T01:33:43;102428.41;;;3.68;55.41
7524;BME280;3803;51.666;7.630;2023-04-03T01:34:04;102419.13;;;3.60;55.17
7524;BME280;3803;51.666;7.630;2023-04-03T01:34:27;102437.19;;;3.70;55.09
7524;BME280;3803;51.666;7.630;2023-04-03T01:34:48;102423.53;;;3.61;55.56
7524;BME280;3803;51.666;7.630;2023-04-03T01:35:10;102421.44;;;3.56;55.53
7524;BME280;3803;51.666;7.630;2023-04-03T01:35:32;102443.78;;;3.66;55.38
7524;BME280;3803;51.666;7.630;2023-04-03T01:35:52;102424.03;;;3.56;55.56
7524;BME280;3803;51.666;7.630;2023-04-03T01:36:21;102429.31;;;3.58;55.61
7524;BME280;3803;51.666;7.630;2023-04-03T01:36:42;102411.91;;;3.55;55.81
7524;BME280;3803;51.666;7.630;2023-04-03T01:37:03;102419.88;;;3.59;55.78
7524;BME280;3803;51.666;7.630;2023-04-03T01:37:24;102409.72;;;3.50;55.17
7524;BME280;3803;51.666;7.630;2023-04-03T01:37:44;102414.47;;;3.55;55.87
7524;BME280;3803;51.666;7.630;2023-04-03T01:38:05;102421.72;;;3.60;55.37
7524;BME280;3803;51.666;7.630;2023-04-03T01:38:27;102420.03;;;3.60;55.46
7524;BME280;3803;51.666;7.630;2023-04-03T01:38:48;102426.34;;;3.64;55.64
7524;BME280;3803;51.666;7.630;2023-04-03T01:39:09;102416.13;;;3.55;55.01
7524;BME280;3803;51.666;7.630;2023-04-03T01:39:29;102429.72;;;3.63;55.38
7524;BME280;3803;51.666;7.630;2023-04-03T01:39:50;102415.50;;;3.58;55.39
7524;BME280;3803;51.666;7.630;2023-04-03T01:40:11;102425.03;;;3.59;55.33
7524;BME280;3803;51.666;7.630;2023-04-03T01:40:32;102423.63;;;3.62;55.28
7524;BME280;3803;51.666;7.630;2023-04-03T01:40:53;102410.34;;;3.58;55.55
7524;BME280;3803;51.666;7.630;2023-04-03T01:41:13;102420.94;;;3.61;55.30
7524;BME280;3803;51.666;7.630;2023-04-03T01:41:35;102423.38;;;3.59;55.37
7524;BME280;3803;51.666;7.630;2023-04-03T01:42:04;102425.03;;;3.59;55.23
7524;BME280;3803;51.666;7.630;2023-04-03T01:42:29;102424.03;;;3.56;55.43
7524;BME280;3803;51.666;7.630;2023-04-03T01:42:49;102416.81;;;3.52;55.45
7524;BME280;3803;51.666;7.630;2023-04-03T01:43:10;102428.41;;;3.58;55.22
7524;BME280;3803;51.666;7.630;2023-04-03T01:43:31;102426.59;;;3.56;55.35
7524;BME280;3803;51.666;7.630;2023-04-03T01:43:51;102427.38;;;3.55;55.20
7524;BME280;3803;51.666;7.630;2023-04-03T01:44:12;102440.81;;;3.62;55.40
7524;BME280;3803;51.666;7.630;2023-04-03T01:44:33;102416.53;;;3.49;55.50
7524;BME280;3803;51.666;7.630;2023-04-03T01:44:53;102425.34;;;3.51;55.58
7524;BME280;3803;51.666;7.630;2023-04-03T01:45:14;102421.69;;;3.49;55.66
7524;BME280;3803;51.666;7.630;2023-04-03T01:45:35;102420.81;;;3.49;55.57
7524;BME280;3803;51.666;7.630;2023-04-03T01:45:56;102428.66;;;3.50;55.21
7524;BME280;3803;51.666;7.630;2023-04-03T01:46:17;102435.13;;;3.55;55.40
7524;BME280;3803;51.666;7.630;2023-04-03T01:46:38;102425.06;;;3.48;55.55
7524;BME280;3803;51.666;7.630;2023-04-03T01:46:59;102435.66;;;3.51;55.44
7524;BME280;3803;51.666;7.630;2023-04-03T01:47:24;102430.88;;;3.46;55.40
7524;BME280;3803;51.666;7.630;2023-04-03T01:47:45;102426.09;;;3.40;55.86
7524;BME280;3803;51.666;7.630;2023-04-03T01:48:06;102427.25;;;3.44;55.41
7524;BME280;3803;51.666;7.630;2023-04-03T01:48:27;102425.31;;;3.41;55.70
7524;BME280;3803;51.666;7.630;2023-04-03T01:48:48;102432.28;;;3.42;55.69
7524;BME280;3803;51.666;7.630;2023-04-03T01:49:09;102429.97;;;3.45;55.84
7524;BME280;3803;51.666;7.630;2023-04-03T01:49:30;102417.06;;;3.35;55.80
7524;BME280;3803;51.666;7.630;2023-04-03T01:49:52;102428.69;;;3.40;55.60
7524;BME280;3803;51.666;7.630;2023-04-03T01:50:13;102423.38;;;3.38;55.58
7524;BME280;3803;51.666;7.630;2023-04-03T01:50:33;102425.19;;;3.39;55.74
7524;BME280;3803;51.666;7.630;2023-04-03T01:50:54;102424.94;;;3.36;55.79
7524;BME280;3803;51.666;7.630;2023-04-03T01:51:15;102429.97;;;3.35;55.57
7524;BME280;3803;51.666;7.630;2023-04-03T01:51:36;102444.03;;;3.38;55.50
7524;BME280;3803;51.666;7.630;2023-04-03T01:51:57;102436.19;;;3.37;55.39
7524;BME280;3803;51.666;7.630;2023-04-03T01:52:17;102432.53;;;3.35;55.52
7524;BME280;3803;51.666;7.630;2023-04-03T01:52:38;102428.69;;;3.30;55.37
7524;BME280;3803;51.666;7.630;2023-04-03T01:52:59;102430.09;;;3.26;55.43
7524;BME280;3803;51.666;7.630;2023-04-03T01:53:20;102438.09;;;3.29;55.81
7524;BME280;3803;51.666;7.630;2023-04-03T01:53:41;102436.16;;;3.16;55.64
7524;BME280;3803;51.666;7.630;2023-04-03T01:54:01;102439.13;;;3.21;56.11
7524;BME280;3803;51.666;7.630;2023-04-03T01:54:22;102444.19;;;3.30;55.86
7524;BME280;3803;51.666;7.630;2023-04-03T01:54:43;102429.31;;;3.27;56.06
7524;BME280;3803;51.666;7.630;2023-04-03T01:55:03;102423.78;;;3.22;56.07
7524;BME280;3803;51.666;7.630;2023-04-03T01:55:24;102440.94;;;3.32;56.20
7524;BME280;3803;51.666;7.630;2023-04-03T01:55:45;102437.31;;;3.30;55.69
7524;BME280;3803;51.666;7.630;2023-04-03T01:56:06;102451.38;;;3.34;55.90
7524;BME280;3803;51.666;7.630;2023-04-03T01:56:27;102433.56;;;3.26;55.67
7524;BME280;3803;51.666;7.630;2023-04-03T01:56:48;102424.28;;;3.18;55.77
7524;BME280;3803;51.666;7.630;2023-04-03T01:57:09;102433.06;;;3.20;55.96
7524;BME280;3803;51.666;7.630;2023-04-03T01:57:30;102421.94;;;3.11;55.48
7524;BME280;3803;51.666;7.630;2023-04-03T01:57:51;102427.38;;;3.14;56.09
7524;BME280;3803;51.666;7.630;2023-04-03T01:58:11;102425.84;;;3.16;55.67
7524;BME280;3803;51.666;7.630;2023-04-03T01:58:32;102441.56;;;3.19;55.83
7524;BME280;3803;51.666;7.630;2023-04-03T01:58:53;102433.44;;;3.14;56.31
7524;BME280;3803;51.666;7.630;2023-04-03T01:59:14;102429.34;;;3.17;56.30
7524;BME280;3803;51.666;7.630;2023-04-03T01:59:37;102441.06;;;3.23;56.09
7524;BME280;3803;51.666;7.630;2023-04-03T01:59:58;102432.66;;;3.15;55.95
7524;BME280;3803;51.666;7.630;2023-04-03T02:00:19;102447.88;;;3.23;56.07
7524;BME280;3803;51.666;7.630;2023-04-03T02:00:40;102431.91;;;3.17;56.14
7524;BME280;3803;51.666;7.630;2023-04-03T02:01:00;102438.09;;;3.19;55.83
7524;BME280;3803;51.666;7.630;2023-04-03T02:01:23;102447.63;;;3.20;56.07
7524;BME280;3803;51.666;7.630;2023-04-03T02:01:43;102437.06;;;3.17;55.82
7524;BME280;3803;51.666;7.630;2023-04-03T02:02:05;102430.47;;;3.10;55.86
7524;BME280;3803;51.666;7.630;2023-04-03T02:02:27;102451.88;;;3.19;56.18
7524;BME280;3803;51.666;7.630;2023-04-03T02:02:48;102448.56;;;3.20;56.27
7524;BME280;3803;51.666;7.630;2023-04-03T02:03:08;102453.72;;;3.20;55.97
7524;BME280;3803;51.666;7.630;2023-04-03T02:03:29;102435.00;;;3.12;55.92
7524;BME280;3803;51.666;7.630;2023-04-03T02:03:51;102448.28;;;3.17;55.97
7524;BME280;3803;51.666;7.630;2023-04-03T02:04:12;102445.31;;;3.12;55.75
7524;BME280;3803;51.666;7.630;2023-04-03T02:04:33;102431.00;;;3.06;55.84
7524;BME280;3803;51.666;7.630;2023-04-03T02:04:53;102440.16;;;3.12;56.08